Time;durP1;ratioP1;P1;durP2;ratioP2;P2;SDS_P1;SDS_P2;PMS_P1;PMS_P2;Temp;Humidity;BMP_temperature;BMP_pressure;BME280_temperature;BME280_humidity;BME280_pressure;Samples;Min_cycle;Max_cycle;Signal;HPM_P1;HPM_P2
2021/09/07 00:21:55;;;;;;;8.80;5.18;;;;;;;;;;6298135;22;20035;-85
2021/09/07 00:28:23;;;;;;;8.98;4.93;;;;;;;;;;6273173;22;20027;-86
2021/09/07 00:32:05;;;;;;;7.07;5.18;;;;;;;;;;6237121;23;20066;-86
2021/09/07 00:34:56;;;;;;;6.55;4.90;;;;;;;;;;6222467;22;20004;-85
2021/09/07 00:41:45;;;;;;;6.68;4.97;;;;;;;;;;6008999;23;20007;-85
2021/09/07 00:44:51;;;;;;;6.28;4.75;;;;;;;;;;5909447;24;20000;-85
2021/09/07 00:48:11;;;;;;;8.80;5.30;;;;;;;;;;5947851;24;20003;-86
2021/09/07 00:51:31;;;;;;;6.40;5.00;;;;;;;;;;5898199;24;20046;-86
2021/09/07 00:55:07;;;;;;;7.57;5.18;;;;;;;;;;5870962;24;20064;-86
2021/09/07 00:58:23;;;;;;;8.77;5.45;;;;;;;;;;5868328;24;20031;-86
2021/09/07 01:05:11;;;;;;;6.03;5.10;;;;;;;;;;5791863;24;20046;-86
2021/09/07 01:12:03;;;;;;;9.77;6.25;;;;;;;;;;5793547;24;20014;-86
2021/09/07 01:15:36;;;;;;;7.13;5.78;;;;;;;;;;5805424;24;19999;-86
2021/09/07 01:22:04;;;;;;;8.35;5.40;;;;;;;;;;5954596;24;20040;-86
2021/09/07 01:25:36;;;;;;;8.20;5.55;;;;;;;;;;5919655;24;20054;-86
2021/09/07 02:13:05;;;;;;;10.20;6.00;;;;;;;;;;6214278;23;20075;-86
2021/09/07 02:19:57;;;;;;;10.43;5.33;;;;;;;;;;6150568;23;20013;-86
2021/09/07 02:26:28;;;;;;;8.68;6.78;;;;;;;;;;6038148;23;20038;-86
2021/09/07 02:29:48;;;;;;;10.63;6.03;;;;;;;;;;6034647;23;20012;-86
2021/09/07 02:32:24;;;;;;;7.75;5.78;;;;;;;;;;6037587;23;20023;-85
2021/09/07 02:35:36;;;;;;;10.48;6.28;;;;;;;;;;6037836;23;19995;-86
2021/09/07 02:39:12;;;;;;;9.90;5.60;;;;;;;;;;6037981;23;20032;-86
2021/09/07 02:42:15;;;;;;;10.75;5.63;;;;;;;;;;6009763;23;20001;-86
2021/09/07 02:45:24;;;;;;;8.38;5.93;;;;;;;;;;6009516;24;20008;-86
2021/09/07 03:06:10;;;;;;;11.43;5.70;;;;;;;;;;5981804;23;20012;-87
2021/09/07 03:16:56;;;;;;;9.38;6.13;;;;;;;;;;5872123;24;20021;-86
2021/09/07 03:19:45;;;;;;;12.20;6.35;;;;;;;;;;5837267;24;20003;-86
2021/09/07 03:22:30;;;;;;;8.05;6.45;;;;;;;;;;5835751;24;20012;-86
2021/09/07 03:25:48;;;;;;;12.55;7.13;;;;;;;;;;5849494;24;19999;-87
2021/09/07 03:32:50;;;;;;;15.85;6.72;;;;;;;;;;5840184;24;20038;-87
2021/09/07 03:36:03;;;;;;;9.27;6.50;;;;;;;;;;5792250;24;20046;-86
2021/09/07 03:39:05;;;;;;;13.13;6.75;;;;;;;;;;5816645;24;20022;-86
2021/09/07 03:46:17;;;;;;;9.13;6.97;;;;;;;;;;5788660;24;20062;-86
2021/09/07 03:49:06;;;;;;;12.32;7.47;;;;;;;;;;5761047;24;20013;-87
2021/09/07 03:52:10;;;;;;;15.68;7.10;;;;;;;;;;5740684;24;20012;-87
2021/09/07 04:21:45;;;;;;;14.25;7.13;;;;;;;;;;6274102;22;20055;-87
2021/09/07 04:28:37;;;;;;;14.45;7.18;;;;;;;;;;6182326;23;20021;-86
2021/09/07 04:31:50;;;;;;;12.15;6.95;;;;;;;;;;6181910;23;20044;-87
2021/09/07 04:34:54;;;;;;;11.35;7.55;;;;;;;;;;6036546;23;20003;-87
2021/09/07 04:40:53;;;;;;;;;;;;;;;;;;6036473;23;20019;-85
2021/09/07 04:44:23;;;;;;;10.68;6.80;;;;;;;;;;6035147;23;19962;-85
2021/09/07 04:47:38;;;;;;;9.82;6.50;;;;;;;;;;6030923;23;20015;-84
2021/09/07 04:51:02;;;;;;;9.93;6.45;;;;;;;;;;6035766;23;20027;-84
2021/09/07 04:53:56;;;;;;;13.05;7.15;;;;;;;;;;6035819;23;20016;-85
2021/09/07 04:56:46;;;;;;;8.70;6.68;;;;;;;;;;5951884;24;19989;-85
2021/09/07 05:03:09;;;;;;;10.20;6.80;;;;;;;;;;5898290;24;20058;-83
2021/09/07 05:12:18;;;;;;;11.63;6.37;;;;;;;;;;6285377;22;20035;-85
2021/09/07 05:15:09;;;;;;;9.73;7.13;;;;;;;;;;6223325;23;20016;-84
2021/09/07 05:18:15;;;;;;;11.27;7.28;;;;;;;;;;6272892;22;20008;-85
2021/09/07 05:21:32;;;;;;;12.25;6.70;;;;;;;;;;6219949;23;20000;-83
2021/09/07 05:24:06;;;;;;;10.70;6.72;;;;;;;;;;6228595;23;20011;-84
2021/09/07 05:27:00;;;;;;;12.85;6.82;;;;;;;;;;6247185;23;20031;-84
2021/09/07 05:29:53;;;;;;;11.18;7.03;;;;;;;;;;6269807;23;20009;-84
2021/09/07 05:32:42;;;;;;;8.50;6.47;;;;;;;;;;6243077;23;19991;-84
2021/09/07 05:35:53;;;;;;;10.85;7.43;;;;;;;;;;6198733;23;20015;-84
2021/09/07 05:38:32;;;;;;;10.20;7.20;;;;;;;;;;6271875;23;20003;-84
2021/09/07 05:42:05;;;;;;;11.38;7.07;;;;;;;;;;6209482;23;20008;-84
2021/09/07 05:44:35;;;;;;;11.75;6.45;;;;;;;;;;6210093;23;20032;-84
2021/09/07 05:47:37;;;;;;;9.20;6.57;;;;;;;;;;6209649;23;20459;-85
2021/09/07 05:54:43;;;;;;;14.18;7.10;;;;;;;;;;6242380;22;20019;-85
2021/09/07 06:35:19;;;;;;;10.45;6.90;;;;;;;;;;6275153;22;20023;-86
2021/09/07 06:41:58;;;;;;;9.75;6.80;;;;;;;;;;6255722;22;20095;-86
2021/09/07 06:45:06;;;;;;;9.70;6.80;;;;;;;;;;6162727;23;20028;-85
2021/09/07 07:22:16;;;;;;;11.55;5.93;;;;;;;;;;6305367;22;20050;-86
2021/09/07 07:25:43;;;;;;;12.40;7.00;;;;;;;;;;6300445;22;20042;-86
2021/09/07 07:32:42;;;;;;;9.27;6.95;;;;;;;;;;6151589;23;20013;-86
2021/09/07 07:36:23;;;;;;;11.93;6.63;;;;;;;;;;6093878;23;20054;-85
2021/09/07 07:43:24;;;;;;;12.30;6.80;;;;;;;;;;6008809;23;20391;-85
2021/09/07 07:46:35;;;;;;;12.32;6.10;;;;;;;;;;6184684;22;20016;-84
2021/09/07 07:51:56;;;;;;;10.57;5.97;;;;;;;;;;6239571;22;20024;-86
2021/09/07 08:43:43;;;;;;;6.20;5.35;;;;;;;;;;6230697;22;20032;-86
2021/09/07 08:46:37;;;;;;;8.38;5.47;;;;;;;;;;6238134;23;20017;-86
2021/09/07 08:49:37;;;;;;;9.32;5.38;;;;;;;;;;6241337;23;20007;-85
2021/09/07 08:52:13;;;;;;;7.93;5.80;;;;;;;;;;6241764;23;20005;-86
2021/09/07 08:54:55;;;;;;;8.20;5.35;;;;;;;;;;6226482;23;20000;-86
2021/09/07 08:57:54;;;;;;;8.63;5.68;;;;;;;;;;6241414;23;20064;-85
2021/09/07 09:00:49;;;;;;;7.25;5.55;;;;;;;;;;6208788;23;20018;-86
2021/09/07 09:24:28;;;;;;;8.10;5.15;;;;;;;;;;6288090;22;20016;-86
2021/09/07 11:38:51;;;;;;;9.45;6.10;;;;;;;;;;6208822;23;20024;-86
2021/09/07 11:41:19;;;;;;;6.10;5.50;;;;;;;;;;6152086;23;20080;-87
2021/09/07 11:43:55;;;;;;;8.35;5.50;;;;;;;;;;6165375;23;20007;-86
2021/09/07 11:49:43;;;;;;;14.25;5.60;;;;;;;;;;6191941;23;20064;-86
2021/09/07 11:52:11;;;;;;;8.32;5.55;;;;;;;;;;6185303;23;20424;-87
2021/09/07 11:54:37;;;;;;;6.72;5.55;;;;;;;;;;6158138;23;20320;-87
2021/09/07 11:57:03;;;;;;;13.07;5.53;;;;;;;;;;6158283;23;20001;-90
2021/09/07 11:59:28;;;;;;;7.45;5.05;;;;;;;;;;6158400;23;20009;-88
2021/09/07 12:01:56;;;;;;;6.43;5.10;;;;;;;;;;6159192;23;20431;-90
2021/09/07 12:04:23;;;;;;;6.75;5.25;;;;;;;;;;6159021;23;20049;-89
2021/09/07 12:06:51;;;;;;;6.13;4.70;;;;;;;;;;6158756;23;20454;-92
2021/09/07 12:09:23;;;;;;;8.48;4.85;;;;;;;;;;6157685;23;20015;-90
2021/09/07 12:12:08;;;;;;;6.07;5.05;;;;;;;;;;6157883;23;20087;-89
2021/09/07 12:14:41;;;;;;;7.40;5.03;;;;;;;;;;6158861;23;20004;-90
2021/09/07 12:17:11;;;;;;;5.10;4.60;;;;;;;;;;6184368;23;20001;-89
2021/09/07 12:19:47;;;;;;;6.22;4.88;;;;;;;;;;6184866;23;20008;-90
2021/09/07 12:22:23;;;;;;;7.18;4.72;;;;;;;;;;6157959;23;19997;-90
2021/09/07 12:25:06;;;;;;;6.78;5.35;;;;;;;;;;6184336;23;20031;-89
2021/09/07 12:27:40;;;;;;;6.22;4.93;;;;;;;;;;6157459;23;20004;-89
2021/09/07 12:30:20;;;;;;;7.18;4.80;;;;;;;;;;6185085;23;19997;-89
2021/09/07 12:33:00;;;;;;;5.65;5.05;;;;;;;;;;6184713;23;20001;-90
2021/09/07 12:35:42;;;;;;;8.93;5.60;;;;;;;;;;6184494;23;20009;-88
2021/09/07 12:38:20;;;;;;;6.93;4.70;;;;;;;;;;6158438;23;20343;-91
2021/09/07 12:40:50;;;;;;;8.82;5.25;;;;;;;;;;6184417;23;20431;-90
2021/09/07 12:43:22;;;;;;;6.78;4.68;;;;;;;;;;6157384;23;20250;-90
2021/09/07 12:45:51;;;;;;;7.30;5.05;;;;;;;;;;6184792;23;20072;-90
2021/09/07 12:48:17;;;;;;;6.68;5.00;;;;;;;;;;6157791;23;20039;-90
2021/09/07 12:50:45;;;;;;;7.50;5.55;;;;;;;;;;6157946;23;20004;-91
2021/09/07 12:53:11;;;;;;;6.68;5.10;;;;;;;;;;6157436;23;20001;-90
2021/09/07 12:55:42;;;;;;;8.75;5.20;;;;;;;;;;6181755;23;20455;-90
2021/09/07 12:58:09;;;;;;;8.50;5.00;;;;;;;;;;6184797;23;20008;-90
2021/09/07 13:00:39;;;;;;;11.55;5.43;;;;;;;;;;6184261;23;20108;-90
2021/09/07 13:03:08;;;;;;;7.57;4.65;;;;;;;;;;6158043;23;20004;-90
2021/09/07 13:05:33;;;;;;;7.53;5.07;;;;;;;;;;6157329;23;20059;-89
2021/09/07 13:07:59;;;;;;;7.88;5.40;;;;;;;;;;6157561;23;20005;-91
2021/09/07 13:10:24;;;;;;;6.90;5.65;;;;;;;;;;6156915;23;20005;-89
2021/09/07 13:12:49;;;;;;;8.70;5.45;;;;;;;;;;6183972;23;20005;-90
2021/09/07 13:15:15;;;;;;;6.20;5.15;;;;;;;;;;6183715;23;20091;-90
2021/09/07 13:17:41;;;;;;;6.72;5.40;;;;;;;;;;6183603;23;20000;-90
2021/09/07 13:20:06;;;;;;;8.45;5.68;;;;;;;;;;6158054;23;20013;-90
2021/09/07 13:22:32;;;;;;;7.80;5.18;;;;;;;;;;6156699;23;20092;-89
2021/09/07 13:24:58;;;;;;;7.57;5.50;;;;;;;;;;6184160;23;20027;-92
2021/09/07 13:27:23;;;;;;;7.95;5.03;;;;;;;;;;6183398;23;20048;-94
2021/09/07 13:29:49;;;;;;;7.45;5.25;;;;;;;;;;6157411;23;20056;-90
2021/09/07 13:32:14;;;;;;;9.80;5.45;;;;;;;;;;6156877;23;20059;-89
2021/09/07 13:34:40;;;;;;;9.10;5.00;;;;;;;;;;6157220;23;20398;-89
2021/09/07 13:37:05;;;;;;;7.25;5.18;;;;;;;;;;6183327;23;19997;-89
2021/09/07 13:39:31;;;;;;;8.55;5.32;;;;;;;;;;6156919;23;20032;-88
2021/09/07 13:41:56;;;;;;;8.80;5.22;;;;;;;;;;6157203;23;20056;-89
2021/09/07 13:44:22;;;;;;;9.25;5.07;;;;;;;;;;6183469;23;20005;-89
2021/09/07 13:46:48;;;;;;;5.68;4.88;;;;;;;;;;6183568;23;19997;-88
2021/09/07 13:49:13;;;;;;;7.38;5.18;;;;;;;;;;6156703;23;20005;-89
2021/09/07 13:51:39;;;;;;;9.43;5.35;;;;;;;;;;6156539;23;20076;-91
2021/09/07 13:54:04;;;;;;;6.25;5.00;;;;;;;;;;6158078;23;20009;-89
2021/09/07 13:56:30;;;;;;;5.70;4.82;;;;;;;;;;6183626;23;20099;-90
2021/09/07 13:58:56;;;;;;;8.77;5.10;;;;;;;;;;6157185;23;20060;-91
2021/09/07 14:01:22;;;;;;;9.52;5.53;;;;;;;;;;6184128;23;20021;-91
2021/09/07 14:03:47;;;;;;;7.35;4.95;;;;;;;;;;6184027;23;20000;-91
2021/09/07 14:06:13;;;;;;;6.57;4.97;;;;;;;;;;6158117;23;20001;-89
2021/09/07 14:08:38;;;;;;;5.97;5.20;;;;;;;;;;6183001;23;20084;-88
2021/09/07 14:11:04;;;;;;;6.03;4.90;;;;;;;;;;6158087;23;20001;-89
2021/09/07 14:13:29;;;;;;;8.23;4.90;;;;;;;;;;6157946;23;20000;-89
2021/09/07 14:15:55;;;;;;;8.27;5.07;;;;;;;;;;6157735;23;20028;-89
2021/09/07 14:18:21;;;;;;;8.73;4.97;;;;;;;;;;6159838;23;20331;-90
2021/09/07 14:20:46;;;;;;;7.57;4.50;;;;;;;;;;6185345;23;20001;-89
2021/09/07 14:23:14;;;;;;;6.75;4.78;;;;;;;;;;6186289;23;20024;-91
2021/09/07 14:25:40;;;;;;;8.60;4.70;;;;;;;;;;6159086;23;20048;-89
2021/09/07 14:28:06;;;;;;;6.70;4.75;;;;;;;;;;6185816;23;20216;-92
2021/09/07 14:30:32;;;;;;;5.45;4.75;;;;;;;;;;6158972;23;20012;-89
2021/09/07 14:32:57;;;;;;;10.25;4.60;;;;;;;;;;6158012;23;20005;-93
2021/09/07 14:35:23;;;;;;;5.43;4.70;;;;;;;;;;6158472;23;20012;-88
2021/09/07 14:37:48;;;;;;;5.18;4.43;;;;;;;;;;6184579;23;20005;-91
2021/09/07 14:40:14;;;;;;;6.85;4.68;;;;;;;;;;6184334;23;20048;-88
2021/09/07 14:42:39;;;;;;;8.80;4.80;;;;;;;;;;6185093;23;20043;-90
2021/09/07 14:45:09;;;;;;;7.40;4.60;;;;;;;;;;6184608;23;20007;-89
2021/09/07 14:47:34;;;;;;;8.20;4.53;;;;;;;;;;6158835;23;20036;-88
2021/09/07 14:50:00;;;;;;;5.72;4.18;;;;;;;;;;6158423;23;20008;-88
2021/09/07 14:52:25;;;;;;;6.13;4.25;;;;;;;;;;6159167;23;20151;-87
2021/09/07 14:54:50;;;;;;;6.90;4.50;;;;;;;;;;6184637;23;20424;-87
2021/09/07 14:57:16;;;;;;;6.15;4.50;;;;;;;;;;6185520;23;20023;-87
2021/09/07 14:59:42;;;;;;;6.80;4.18;;;;;;;;;;6158759;23;20001;-87
2021/09/07 15:02:07;;;;;;;7.30;5.05;;;;;;;;;;6159084;23;20335;-88
2021/09/07 15:04:33;;;;;;;6.50;4.43;;;;;;;;;;6184960;23;20004;-89
2021/09/07 15:06:59;;;;;;;5.82;4.07;;;;;;;;;;6184816;23;20367;-89
2021/09/07 15:09:24;;;;;;;7.57;4.80;;;;;;;;;;6159061;23;19997;-90
2021/09/07 15:11:50;;;;;;;5.53;3.60;;;;;;;;;;6158643;23;19997;-87
2021/09/07 15:14:16;;;;;;;6.47;4.38;;;;;;;;;;6185221;23;19996;-89
2021/09/07 15:16:41;;;;;;;6.22;4.68;;;;;;;;;;6184117;23;20032;-88
2021/09/07 15:19:07;;;;;;;8.85;4.70;;;;;;;;;;6158896;23;20004;-89
2021/09/07 15:21:32;;;;;;;5.28;4.45;;;;;;;;;;6185422;23;20020;-89
2021/09/07 15:23:58;;;;;;;6.47;4.63;;;;;;;;;;6158926;23;20424;-90
2021/09/07 15:26:23;;;;;;;9.30;4.60;;;;;;;;;;6186047;23;20068;-87
2021/09/07 15:28:58;;;;;;;5.38;4.30;;;;;;;;;;6158496;23;20008;-88
2021/09/07 15:31:31;;;;;;;7.40;4.60;;;;;;;;;;6158675;23;20347;-87
2021/09/07 15:34:01;;;;;;;7.43;4.70;;;;;;;;;;6183860;23;20432;-88
2021/09/07 15:36:31;;;;;;;7.20;4.70;;;;;;;;;;6184839;23;20009;-89
2021/09/07 15:39:03;;;;;;;6.55;4.45;;;;;;;;;;6158443;23;20005;-85
2021/09/07 15:41:35;;;;;;;7.55;4.75;;;;;;;;;;6185713;23;20001;-86
2021/09/07 15:44:02;;;;;;;8.55;4.65;;;;;;;;;;6183781;23;20097;-85
2021/09/07 15:46:28;;;;;;;6.50;4.15;;;;;;;;;;6185187;23;19997;-89
2021/09/07 15:48:58;;;;;;;5.90;4.65;;;;;;;;;;6157798;23;20059;-87
2021/09/07 15:51:23;;;;;;;6.72;4.25;;;;;;;;;;6158419;23;20001;-86
2021/09/07 15:53:50;;;;;;;7.85;4.60;;;;;;;;;;6184972;23;20003;-86
2021/09/07 15:56:17;;;;;;;7.55;4.55;;;;;;;;;;6158022;23;20005;-86
2021/09/07 15:58:43;;;;;;;6.15;4.55;;;;;;;;;;6158314;23;20021;-87
2021/09/07 16:01:08;;;;;;;6.90;4.80;;;;;;;;;;6158135;23;20442;-87
2021/09/07 16:03:34;;;;;;;6.90;4.50;;;;;;;;;;6184739;23;20025;-87
2021/09/07 16:05:59;;;;;;;5.57;4.47;;;;;;;;;;6158569;23;20031;-89
2021/09/07 16:08:25;;;;;;;6.78;4.35;;;;;;;;;;6159030;23;20347;-86
2021/09/07 16:10:50;;;;;;;5.13;4.35;;;;;;;;;;6159192;23;20332;-89
2021/09/07 16:13:16;;;;;;;7.70;4.50;;;;;;;;;;6158439;23;20004;-88
2021/09/07 16:15:42;;;;;;;6.35;4.40;;;;;;;;;;6158136;23;20008;-89
2021/09/07 16:18:07;;;;;;;6.45;4.72;;;;;;;;;;6184462;23;20036;-87
2021/09/07 16:20:33;;;;;;;6.07;4.88;;;;;;;;;;6158183;23;20028;-87
2021/09/07 16:23:00;;;;;;;10.68;4.95;;;;;;;;;;6158303;23;20028;-89
2021/09/07 16:25:29;;;;;;;5.82;4.10;;;;;;;;;;6185028;23;20028;-88
2021/09/07 16:27:56;;;;;;;5.83;4.33;;;;;;;;;;6184754;23;19997;-87
2021/09/07 16:30:22;;;;;;;6.70;4.70;;;;;;;;;;6185069;23;20004;-86
2021/09/07 16:32:47;;;;;;;6.03;5.00;;;;;;;;;;6157522;23;20005;-87
2021/09/07 16:35:13;;;;;;;8.80;4.47;;;;;;;;;;6183579;23;20004;-88
2021/09/07 16:37:40;;;;;;;5.43;4.38;;;;;;;;;;6184026;23;20001;-86
2021/09/07 16:40:07;;;;;;;9.13;4.60;;;;;;;;;;6155636;23;20100;-88
2021/09/07 16:42:49;;;;;;;5.88;4.65;;;;;;;;;;6158021;23;20000;-86
2021/09/07 16:45:14;;;;;;;7.63;6.60;;;;;;;;;;6157017;23;20011;-86
2021/09/07 16:47:40;;;;;;;43.53;5.57;;;;;;;;;;6157694;23;20024;-87
2021/09/07 16:50:06;;;;;;;13.30;6.38;;;;;;;;;;6183932;23;20243;-84
2021/09/07 16:52:37;;;;;;;16.70;5.07;;;;;;;;;;6183930;23;19997;-85
2021/09/07 16:55:09;;;;;;;14.48;4.60;;;;;;;;;;6183249;23;20444;-85
2021/09/07 16:57:34;;;;;;;6.28;4.40;;;;;;;;;;6182934;23;20005;-86
2021/09/07 17:00:02;;;;;;;7.43;4.07;;;;;;;;;;6182277;23;20482;-86
2021/09/07 17:02:28;;;;;;;6.45;4.57;;;;;;;;;;6184190;23;20339;-85
2021/09/07 17:04:53;;;;;;;7.95;4.22;;;;;;;;;;6184796;23;20008;-85
2021/09/07 17:07:32;;;;;;;7.68;4.35;;;;;;;;;;6184835;23;19993;-85
2021/09/07 17:10:00;;;;;;;5.67;4.43;;;;;;;;;;6184422;23;20339;-85
2021/09/07 17:12:28;;;;;;;8.15;4.10;;;;;;;;;;6157572;23;20601;-85
2021/09/07 17:14:53;;;;;;;5.25;4.07;;;;;;;;;;6157370;23;20005;-85
2021/09/07 17:17:20;;;;;;;5.03;4.25;;;;;;;;;;6157579;23;20009;-85
2021/09/07 17:19:46;;;;;;;7.68;4.45;;;;;;;;;;6157786;23;20051;-85
2021/09/07 17:22:12;;;;;;;6.75;3.90;;;;;;;;;;6184011;23;20001;-85
2021/09/07 17:24:38;;;;;;;5.70;4.25;;;;;;;;;;6183967;23;20333;-85
2021/09/07 17:27:04;;;;;;;6.03;4.18;;;;;;;;;;6183963;23;19993;-86
2021/09/07 17:29:31;;;;;;;6.45;4.38;;;;;;;;;;6182512;23;20009;-86
2021/09/07 17:34:33;;;;;;;7.47;4.15;;;;;;;;;;6183884;23;20055;-88
2021/09/07 17:37:23;;;;;;;6.82;3.90;;;;;;;;;;6183905;23;20431;-86
2021/09/07 17:42:33;;;;;;;8.88;4.35;;;;;;;;;;6183932;23;20141;-86
2021/09/07 17:44:59;;;;;;;6.72;4.10;;;;;;;;;;6183345;23;19997;-86
2021/09/07 17:47:25;;;;;;;7.93;4.65;;;;;;;;;;6157382;23;20004;-87
2021/09/07 17:49:50;;;;;;;6.32;4.57;;;;;;;;;;6156485;23;20043;-87
2021/09/07 17:52:16;;;;;;;6.28;4.22;;;;;;;;;;6158474;23;20446;-86
2021/09/07 17:54:41;;;;;;;7.60;4.45;;;;;;;;;;6183947;23;20331;-86
2021/09/07 17:57:07;;;;;;;6.47;4.82;;;;;;;;;;6184600;23;20498;-86
2021/09/07 17:59:32;;;;;;;6.90;5.00;;;;;;;;;;6158935;23;20001;-87
2021/09/07 18:01:58;;;;;;;6.18;4.63;;;;;;;;;;6186072;23;20004;-86
2021/09/07 18:04:23;;;;;;;8.18;5.00;;;;;;;;;;6185785;23;19997;-86
2021/09/07 18:06:49;;;;;;;5.47;4.68;;;;;;;;;;6184480;23;19993;-86
2021/09/07 18:09:15;;;;;;;8.18;4.63;;;;;;;;;;6185303;23;20000;-86
2021/09/07 18:11:42;;;;;;;9.90;4.88;;;;;;;;;;6158706;23;20004;-86
2021/09/07 18:14:08;;;;;;;6.85;4.80;;;;;;;;;;6158784;23;20065;-86
2021/09/07 18:16:33;;;;;;;11.35;5.70;;;;;;;;;;6157978;23;20348;-86
2021/09/07 18:19:01;;;;;;;14.13;5.50;;;;;;;;;;6159086;23;20001;-86
2021/09/07 18:21:27;;;;;;;8.82;5.25;;;;;;;;;;6158329;23;20029;-86
2021/09/07 18:23:56;;;;;;;7.55;5.50;;;;;;;;;;6157268;23;20012;-86
2021/09/07 18:26:26;;;;;;;10.88;6.05;;;;;;;;;;6183370;23;20001;-87
2021/09/07 18:28:56;;;;;;;7.35;4.97;;;;;;;;;;6158142;23;20008;-87
2021/09/07 18:31:26;;;;;;;8.77;6.23;;;;;;;;;;6157980;23;20079;-87
2021/09/07 18:33:55;;;;;;;10.82;5.22;;;;;;;;;;6184352;23;20235;-85
2021/09/07 18:36:24;;;;;;;8.93;5.90;;;;;;;;;;6157527;23;20005;-85
2021/09/07 18:38:53;;;;;;;9.25;5.85;;;;;;;;;;6183797;23;20435;-84
2021/09/07 18:41:19;;;;;;;8.80;6.55;;;;;;;;;;6184121;23;19997;-84
2021/09/07 18:43:47;;;;;;;9.05;5.38;;;;;;;;;;6184588;23;20001;-86
2021/09/07 18:46:14;;;;;;;10.60;5.82;;;;;;;;;;6184366;23;20076;-86
2021/09/07 18:48:42;;;;;;;8.98;5.55;;;;;;;;;;6157471;23;20013;-86
2021/09/07 18:51:11;;;;;;;7.43;5.20;;;;;;;;;;6184348;23;20435;-84
2021/09/07 18:53:44;;;;;;;9.23;5.70;;;;;;;;;;6184999;23;20003;-85
2021/09/07 18:56:17;;;;;;;7.10;5.80;;;;;;;;;;6158116;23;20005;-85
2021/09/07 18:58:47;;;;;;;8.30;5.53;;;;;;;;;;6157712;23;20093;-85
2021/09/07 19:01:24;;;;;;;7.90;5.95;;;;;;;;;;6184067;23;20088;-85
2021/09/07 19:03:51;;;;;;;10.25;5.40;;;;;;;;;;6183916;23;20001;-85
2021/09/07 19:06:16;;;;;;;7.05;5.35;;;;;;;;;;6184044;23;20007;-86
2021/09/07 19:08:42;;;;;;;17.63;5.50;;;;;;;;;;6155835;23;20008;-87
2021/09/07 19:11:07;;;;;;;9.23;5.70;;;;;;;;;;6183838;23;20435;-86
2021/09/07 19:13:33;;;;;;;6.63;5.38;;;;;;;;;;6182353;23;20001;-83
2021/09/07 19:15:58;;;;;;;8.43;5.45;;;;;;;;;;6183465;23;20001;-83
2021/09/07 19:18:23;;;;;;;8.73;6.07;;;;;;;;;;6155103;23;20005;-83
2021/09/07 19:20:49;;;;;;;9.15;5.97;;;;;;;;;;6183673;23;20000;-82
2021/09/07 19:23:14;;;;;;;10.90;6.03;;;;;;;;;;6184286;23;19997;-83
2021/09/07 19:25:40;;;;;;;9.90;6.35;;;;;;;;;;6157523;23;20072;-83
2021/09/07 19:28:06;;;;;;;9.02;5.82;;;;;;;;;;6158384;23;20072;-83
2021/09/07 19:30:32;;;;;;;9.23;6.47;;;;;;;;;;6184039;23;19997;-83
2021/09/07 19:32:57;;;;;;;9.48;6.25;;;;;;;;;;6157081;23;20011;-83
2021/09/07 19:35:23;;;;;;;10.35;6.05;;;;;;;;;;6156816;23;20012;-83
2021/09/07 19:37:49;;;;;;;7.43;6.45;;;;;;;;;;6183414;23;20004;-83
2021/09/07 19:40:15;;;;;;;10.85;6.05;;;;;;;;;;6184075;23;20051;-83
2021/09/07 19:42:42;;;;;;;7.70;5.60;;;;;;;;;;6157148;23;20004;-83
2021/09/07 19:45:08;;;;;;;8.73;5.65;;;;;;;;;;6157698;23;20015;-83
2021/09/07 19:47:34;;;;;;;7.63;6.03;;;;;;;;;;6183530;23;20001;-84
2021/09/07 19:50:00;;;;;;;12.98;6.35;;;;;;;;;;6182680;23;20479;-86
2021/09/07 19:52:26;;;;;;;10.50;6.55;;;;;;;;;;6157112;23;20448;-86
2021/09/07 19:54:52;;;;;;;9.90;6.72;;;;;;;;;;6186229;23;20008;-87
2021/09/07 20:17:45;;;;;;;11.80;5.80;;;;;;;;;;6228692;22;20093;-84
2021/09/07 22:01:40;;;;;;;4.63;3.40;;;;;;;;;;6289753;22;20020;-81
2021/09/07 22:39:02;;;;;;;5.35;3.08;;;;;;;;;;6228699;22;20936;-80
